FABL

Bram Fischer International Airport

Bloemfontain, South Africa
METAR FABL 221400Z 05004KT 350V080 7000 -TSRA OVC040 FEW060CB 23/12 Q1020 NOSIG
Observed Flight Rules
Sep-22 @ 14:00 UTC (60 minutes ago) Marginal Visual Flight Rules
Wind Visibility Clouds Conditions
50° at 4 knots 7,001 meters
Temperatures Readings
Current 23°C / 73°F
Dewpoint 12°C / 54°F
Humidity 50%
Altimeter 30.12" Hg
Pressure 1020 hPa
Elevation 1348
METAR FABL 221400Z 05004KT 350V080 7000 -TSRA OVC040 FEW060CB 23/12 Q1020 NOSIG
Observed Flight Rules
Sep-22 @ 14:00 UTC
(60 minutes ago)
MVFR
Wind Visibility
50° at 4 knots 7,001 meters
Clouds
Conditions
Temperature Dewpoint
23°C / 73°F 12°C / 54°F
Humidity Altimeter Pressure
50% 30.12" Hg 1020 hPa